Sandra Hugh — WDD9019 — position and weather

sailwx.info

Track history (hours):
 
Tides and Currents Weather Stations Pressure Air Temp Water Temp Dewpoint Dewpoint Depression Visibility Wind Speed Wind Dir Waves Ship Positions

Sandra Hugh

Owner: AMNAV Maritime Corporation, Oakland, CA. More information available from US FCC via Universal Licensing System and Coast Guard Vessel Documentation Center.

Last reported at 2018-Aug-19 15:00 UTC. Time now 2018-Aug-19 15:20 UTC.
Position N 37°48' W 122°18'.

Length 24 m; draft 4.9 m.

Type: Tug. MMSI: 367305920.

Date/timePositionNaut miles runAvg speedWind from/ knotsBaromVisibWave heightAir tempDewpointWater temp
2018-Aug-19 15:00N 37°48' W 122°18'1 1.2
2018-Aug-19 14:30N 37°48' W 122°18'1 1.7
2018-Aug-19 14:00N 37°48' W 122°19'2 5.0
2018-Aug-19 13:30N 37°48' W 122°22'1 1.8
2018-Aug-19 13:00N 37°48' W 122°21'0 0.0
2018-Aug-19 12:30N 37°48' W 122°21'0 0.0
2018-Aug-19 12:00N 37°48' W 122°21'1 1.9
2018-Aug-19 11:30N 37°49' W 122°20'0 0.6
2018-Aug-19 11:00N 37°49' W 122°20'1 1.1
2018-Aug-19 10:30N 37°49' W 122°19'1 1.1
2018-Aug-19 10:00N 37°49' W 122°19'0 0.0
2018-Aug-19 09:30N 37°49' W 122°19'0 0.0
2018-Aug-19 09:00N 37°49' W 122°19'0 0.0
2018-Aug-19 08:28N 37°49' W 122°19'0 0.0
2018-Aug-19 08:00N 37°49' W 122°19'0 0.0
2018-Aug-19 07:30N 37°49' W 122°19'0 0.0
2018-Aug-19 07:00N 37°49' W 122°19'0 0.0
2018-Aug-19 06:30N 37°49' W 122°19'0 0.0
2018-Aug-19 06:00N 37°49' W 122°19'0 0.0
2018-Aug-19 05:30N 37°49' W 122°19'0 0.0
2018-Aug-19 05:00N 37°49' W 122°19'0 0.0
2018-Aug-19 04:30N 37°49' W 122°19'0 0.0
2018-Aug-19 04:00N 37°49' W 122°19'0 0.0
2018-Aug-19 03:27N 37°49' W 122°19'0 0.0
2018-Aug-19 03:00N 37°49' W 122°19'0 0.0
2018-Aug-19 02:30N 37°49' W 122°19'0 0.0
2018-Aug-19 02:00N 37°49' W 122°19'0 0.0
2018-Aug-19 01:30N 37°49' W 122°19'0 0.0
2018-Aug-19 01:01N 37°49' W 122°19'0 0.0
2018-Aug-19 00:30N 37°49' W 122°19'2 3.2
2018-Aug-19 00:00N 37°48' W 122°19'0 0.6
2018-Aug-18 23:30N 37°48' W 122°20'2 3.1
2018-Aug-18 23:00N 37°48' W 122°21'2 4.9
2018-Aug-18 22:30N 37°49' W 122°19'0 0.0
2018-Aug-18 22:00N 37°49' W 122°19'0 0.0
2018-Aug-18 21:30N 37°49' W 122°19'0 0.0
2018-Aug-18 21:00N 37°49' W 122°19'0 0.0
2018-Aug-18 20:31N 37°49' W 122°19'0 0.0
2018-Aug-18 20:00N 37°49' W 122°19'0 0.0
2018-Aug-18 19:30N 37°49' W 122°19'2 3.2
2018-Aug-18 19:00N 37°49' W 122°20'510.5
2018-Aug-18 18:30N 37°49' W 122°27'3 6.8
2018-Aug-18 18:00N 37°49' W 122°31'2 3.8
2018-Aug-18 17:30N 37°49' W 122°29'4 8.7
2018-Aug-18 17:01N 37°52' W 122°25'510.7
2018-Aug-18 16:30N 37°58' W 122°27'510.3
2018-Aug-18 16:00N 38°02' W 122°23'5 9.5
2018-Aug-18 15:31N 38°04' W 122°17'4 8.0
2018-Aug-18 14:58N 38°03' W 122°12'3 7.0
2018-Aug-18 14:30N 38°02' W 122°08'2 3.0
2018-Aug-18 13:46N 38°03' W 122°05'2 8.6
2018-Aug-18 13:30N 38°02' W 122°08'0 0.2
2018-Aug-18 13:01N 38°02' W 122°08'0 0.0
2018-Aug-18 12:31N 38°02' W 122°08'0 0.0
2018-Aug-18 12:00N 38°02' W 122°08'0 0.0
2018-Aug-18 11:30N 38°02' W 122°08'0 0.0
2018-Aug-18 11:00N 38°02' W 122°08'0 0.0
2018-Aug-18 10:30N 38°02' W 122°08'0 0.0
2018-Aug-18 10:00N 38°02' W 122°08'0 0.0
2018-Aug-18 09:30N 38°02' W 122°08'0 0.0
2018-Aug-18 09:00N 38°02' W 122°08'0 0.0
2018-Aug-18 08:30N 38°02' W 122°08'0 0.0
2018-Aug-18 08:00N 38°02' W 122°08'0 0.0
2018-Aug-18 07:30N 38°02' W 122°08'0 0.0
2018-Aug-18 06:59N 38°02' W 122°08'0 0.0
2018-Aug-18 06:30N 38°02' W 122°08'0 0.0
2018-Aug-18 06:00N 38°02' W 122°08'0 0.0
2018-Aug-18 05:30N 38°02' W 122°08'0 0.0
2018-Aug-18 05:00N 38°02' W 122°08'0 0.0
2018-Aug-18 04:31N 38°02' W 122°08'0 0.4
2018-Aug-18 03:27N 38°02' W 122°08'1 0.5
2018-Aug-18 00:58N 38°02' W 122°09'1 2.0
2018-Aug-18 00:28N 38°02' W 122°08'1 2.1
2018-Aug-18 00:01N 38°02' W 122°09'611.6
2018-Aug-17 23:30N 38°04' W 122°16'611.7
2018-Aug-17 23:00N 38°01' W 122°23'611.5
2018-Aug-17 22:30N 37°56' W 122°25'3 5.6
2018-Aug-17 22:01N 37°55' W 122°22'0 0.1
2018-Aug-17 21:31N 37°55' W 122°22'1 1.7
2018-Aug-17 21:00N 37°54' W 122°23'2 4.3
2018-Aug-17 20:30N 37°54' W 122°25'2 3.5
2018-Aug-17 20:00N 37°53' W 122°25'510.1
2018-Aug-17 19:30N 37°49' W 122°21'2 3.8
2018-Aug-17 19:00N 37°49' W 122°19'0 0.0
2018-Aug-17 18:30N 37°49' W 122°19'0 0.0
2018-Aug-17 18:00N 37°49' W 122°19'0 0.0
2018-Aug-17 17:30N 37°49' W 122°19'0 0.0
2018-Aug-17 17:00N 37°49' W 122°19'0 0.0
2018-Aug-17 16:30N 37°49' W 122°19'0 0.0
2018-Aug-17 16:00N 37°49' W 122°19'0 0.0
2018-Aug-17 15:30N 37°49' W 122°19'0 0.0
2018-Aug-17 14:58N 37°49' W 122°19'2 1.6
2018-Aug-17 14:00N 37°48' W 122°19'0 0.7
2018-Aug-17 13:30N 37°48' W 122°20'1 2.9
2018-Aug-17 13:00N 37°48' W 122°21'1 1.4
2018-Aug-17 12:30N 37°48' W 122°21'0 0.0
2018-Aug-17 12:00N 37°48' W 122°21'0 0.0
2018-Aug-17 11:30N 37°48' W 122°21'0 0.0
2018-Aug-17 11:00N 37°48' W 122°21'0 0.0
2018-Aug-17 10:30N 37°48' W 122°21'0 0.0
2018-Aug-17 10:00N 37°48' W 122°21'0 0.0
2018-Aug-17 09:30N 37°48' W 122°21'0 0.0
2018-Aug-17 09:00N 37°48' W 122°21'0 0.0
2018-Aug-17 08:30N 37°48' W 122°21'0 0.0
2018-Aug-17 08:00N 37°48' W 122°21'2 3.0
2018-Aug-17 07:30N 37°48' W 122°19'1 1.1
2018-Aug-17 07:01N 37°48' W 122°18'0 0.2
2018-Aug-17 06:30N 37°48' W 122°18'2 4.0
2018-Aug-17 06:00N 37°48' W 122°20'2 3.7
2018-Aug-17 05:30N 37°49' W 122°19'0 0.0
2018-Aug-17 05:00N 37°49' W 122°19'0 0.0
2018-Aug-17 04:30N 37°49' W 122°19'0 0.0
2018-Aug-17 04:00N 37°49' W 122°19'0 0.0
2018-Aug-17 03:30N 37°49' W 122°19'0 0.0
2018-Aug-17 03:00N 37°49' W 122°19'0 0.0
2018-Aug-17 02:30N 37°49' W 122°19'0 0.0
2018-Aug-17 02:00N 37°49' W 122°19'2 3.2
2018-Aug-17 01:30N 37°48' W 122°20'1 1.7
2018-Aug-17 01:00N 37°48' W 122°19'0 0.0
2018-Aug-17 00:30N 37°48' W 122°19'0 0.0
2018-Aug-17 00:00N 37°48' W 122°19'0 0.0
2018-Aug-16 23:30N 37°48' W 122°19'0 0.0
2018-Aug-16 23:01N 37°48' W 122°19'1 2.0
2018-Aug-16 22:30N 37°47' W 122°17'0 0.0
2018-Aug-16 22:00N 37°47' W 122°17'0 0.1
2018-Aug-16 21:30N 37°47' W 122°17'1 2.0
2018-Aug-16 21:00N 37°48' W 122°19'3 5.6
2018-Aug-16 20:30N 37°49' W 122°21'5 9.4
2018-Aug-16 20:00N 37°53' W 122°25'2 4.9
2018-Aug-16 19:31N 37°54' W 122°22'0 0.1
2018-Aug-16 19:00N 37°54' W 122°22'1 1.6
2018-Aug-16 18:30N 37°54' W 122°23'3 5.7
2018-Aug-16 18:00N 37°56' W 122°26'2 4.4
2018-Aug-16 17:29N 37°58' W 122°26'2 4.0
2018-Aug-16 17:00N 37°57' W 122°26'1 1.2
2018-Aug-16 16:30N 37°56' W 122°26'3 5.3
2018-Aug-16 16:00N 37°53' W 122°25'5 9.7
2018-Aug-16 15:30N 37°49' W 122°22'2 4.4
2018-Aug-16 15:00N 37°49' W 122°19'0 0.0
2018-Aug-16 14:30N 37°49' W 122°19'0 0.0
2018-Aug-16 14:00N 37°49' W 122°19'0 0.0
2018-Aug-16 13:30N 37°49' W 122°19'1 2.1
2018-Aug-16 13:00N 37°49' W 122°20'0 0.6
2018-Aug-16 12:30N 37°49' W 122°20'1 2.8
2018-Aug-16 12:00N 37°48' W 122°22'1 2.1
2018-Aug-16 11:30N 37°48' W 122°21'2 3.3
2018-Aug-16 11:00N 37°48' W 122°19'0 0.3
2018-Aug-16 10:30N 37°48' W 122°18'0 0.0
2018-Aug-16 10:00N 37°48' W 122°18'0 0.0
2018-Aug-16 09:30N 37°48' W 122°18'1 1.4
2018-Aug-16 09:00N 37°48' W 122°19'1 2.1
2018-Aug-16 08:30N 37°48' W 122°18'2 3.9
2018-Aug-16 08:00N 37°48' W 122°20'2 3.5
2018-Aug-16 07:30N 37°49' W 122°19'0 0.0
2018-Aug-16 07:00N 37°49' W 122°19'0 0.0
2018-Aug-16 06:30N 37°49' W 122°19'0 0.0
2018-Aug-16 06:00N 37°49' W 122°19'0 0.0
2018-Aug-16 05:30N 37°49' W 122°19'0 0.0
2018-Aug-16 05:00N 37°49' W 122°19'0 0.0
2018-Aug-16 04:30N 37°49' W 122°19'0 0.0
2018-Aug-16 04:00N 37°49' W 122°19'0 0.0
2018-Aug-16 03:30N 37°49' W 122°19'0 0.0
2018-Aug-16 03:00N 37°49' W 122°19'2 4.5
2018-Aug-16 02:30N 37°50' W 122°22'5 9.6
2018-Aug-16 02:00N 37°54' W 122°25'3 5.7
2018-Aug-16 01:30N 37°55' W 122°22'0 0.1
2018-Aug-16 01:00N 37°55' W 122°22'1 1.9
2018-Aug-16 00:30N 37°54' W 122°22'3 5.6
2018-Aug-16 00:00N 37°55' W 122°25'2 3.3
2018-Aug-15 23:30N 37°54' W 122°25'1 2.9
2018-Aug-15 23:00N 37°55' W 122°25'2 4.7
2018-Aug-15 22:30N 37°54' W 122°23'1 2.0
2018-Aug-15 22:00N 37°55' W 122°22'2 3.1
2018-Aug-15 21:30N 37°54' W 122°24'5 8.8
2018-Aug-15 20:59N 37°59' W 122°26'5 9.7
2018-Aug-15 20:30N 38°02' W 122°21'10 3.0
2018-Aug-15 17:05N 38°02' W 122°08'0 0.0
2018-Aug-15 16:55N 38°02' W 122°08'0 0.0
2018-Aug-15 16:02N 38°02' W 122°08'0 0.0
2018-Aug-15 15:58N 38°02' W 122°08'0 0.0
2018-Aug-15 12:50N 38°02' W 122°08'0 0.1
2018-Aug-15 10:46N 38°02' W 122°08'1 0.5
2018-Aug-15 08:18N 38°02' W 122°09'1 1.2
2018-Aug-15 07:33N 38°02' W 122°08'0 2.2
2018-Aug-15 07:27N 38°02' W 122°08'0 0.0
2018-Aug-14 19:47N 38°02' W 122°07'4 7.7
2018-Aug-14 19:19N 38°03' W 122°12'611.0
2018-Aug-14 18:47N 38°03' W 122°19'311.9
2018-Aug-14 18:30N 38°02' W 122°23'611.5
2018-Aug-14 17:59N 37°56' W 122°27'511.1
2018-Aug-14 17:30N 37°51' W 122°25'4 7.4
2018-Aug-14 17:00N 37°49' W 122°28'2 3.5
2018-Aug-14 16:30N 37°48' W 122°30'1 1.6
2018-Aug-14 16:01N 37°48' W 122°30'5 9.5
2018-Aug-14 15:30N 37°49' W 122°23'2 4.6
2018-Aug-14 15:00N 37°48' W 122°21'0 0.1
2018-Aug-14 14:30N 37°48' W 122°21'0 0.0
2018-Aug-14 14:01N 37°48' W 122°21'1 2.6
2018-Aug-14 13:31N 37°48' W 122°19'1 2.5
2018-Aug-14 13:00N 37°48' W 122°21'1 2.8
2018-Aug-14 12:30N 37°48' W 122°22'0 0.9
2018-Aug-14 12:00N 37°48' W 122°22'3 5.5
2018-Aug-14 11:30N 37°49' W 122°19'0 0.0
2018-Aug-14 11:00N 37°49' W 122°19'0 0.0
2018-Aug-14 10:28N 37°49' W 122°19'0 0.0
2018-Aug-14 10:00N 37°49' W 122°19'0 0.0
2018-Aug-14 09:30N 37°49' W 122°19'0 0.0
2018-Aug-14 09:00N 37°49' W 122°19'0 0.0
2018-Aug-14 08:30N 37°49' W 122°19'0 0.0
2018-Aug-14 08:00N 37°49' W 122°19'0 0.0
2018-Aug-14 07:30N 37°49' W 122°19'0 0.0
2018-Aug-14 07:00N 37°49' W 122°19'0 0.0
2018-Aug-14 06:30N 37°49' W 122°19'0 0.0
2018-Aug-14 06:00N 37°49' W 122°19'0 0.0
2018-Aug-14 05:30N 37°49' W 122°19'0 0.0
2018-Aug-14 05:00N 37°49' W 122°19'0 0.0
2018-Aug-14 04:30N 37°49' W 122°19'0 0.0
2018-Aug-14 04:00N 37°49' W 122°19'0 0.0
2018-Aug-14 03:30N 37°49' W 122°19'2 3.4
2018-Aug-14 03:00N 37°48' W 122°21'0 0.1
2018-Aug-14 02:30N 37°48' W 122°20'1 1.4
2018-Aug-14 02:00N 37°49' W 122°20'1 2.0
2018-Aug-14 01:30N 37°49' W 122°19'0 0.0
2018-Aug-14 01:00N 37°49' W 122°19'0 0.0
2018-Aug-14 00:30N 37°49' W 122°19'2 3.2
2018-Aug-14 00:00N 37°48' W 122°20'2 3.5
2018-Aug-13 23:30N 37°48' W 122°17'1 2.0
2018-Aug-13 23:00N 37°48' W 122°19'0 0.1
2018-Aug-13 22:28N 37°48' W 122°19'1 2.1
2018-Aug-13 22:00N 37°48' W 122°17'0 0.0
2018-Aug-13 21:30N 37°48' W 122°17'0 0.2
2018-Aug-13 21:00N 37°48' W 122°18'1 2.3
2018-Aug-13 20:30N 37°48' W 122°19'2 3.1
2018-Aug-13 20:00N 37°49' W 122°19'0 0.0
2018-Aug-13 19:30N 37°49' W 122°19'0 0.0
2018-Aug-13 19:00N 37°49' W 122°19'0 0.0
2018-Aug-13 18:29N 37°49' W 122°19'0 0.0
2018-Aug-13 18:00N 37°49' W 122°19'0 0.0
2018-Aug-13 17:30N 37°49' W 122°19'0 0.0
2018-Aug-13 17:00N 37°49' W 122°19'2 4.3
2018-Aug-13 16:31N 37°48' W 122°21'0 0.5
2018-Aug-13 16:00N 37°48' W 122°21'2 4.0
2018-Aug-13 15:28N 37°48' W 122°18'1 1.6
2018-Aug-13 15:00N 37°48' W 122°19'2 4.4
2018-Aug-13 14:30N 37°48' W 122°21'2 4.9
2018-Aug-13 14:00N 37°49' W 122°19'0 0.0
2018-Aug-13 13:30N 37°49' W 122°19'0 0.0
2018-Aug-13 13:00N 37°49' W 122°19'0 0.0
2018-Aug-13 12:30N 37°49' W 122°19'0 0.0
2018-Aug-13 12:00N 37°49' W 122°19'0 0.0
2018-Aug-13 11:30N 37°49' W 122°19'0 0.0
2018-Aug-13 11:00N 37°49' W 122°19'0 0.0
2018-Aug-13 10:30N 37°49' W 122°19'0 0.0
2018-Aug-13 10:00N 37°49' W 122°19'0 0.0
2018-Aug-13 09:30N 37°49' W 122°19'0 0.0
2018-Aug-13 09:00N 37°49' W 122°19'0 0.0
2018-Aug-13 08:30N 37°49' W 122°19'0 0.0
2018-Aug-13 08:00N 37°49' W 122°19'0 0.0
2018-Aug-13 07:30N 37°49' W 122°19'0 0.0
2018-Aug-13 07:00N 37°49' W 122°19'0 0.0
2018-Aug-13 06:30N 37°49' W 122°19'0 0.0
2018-Aug-13 06:00N 37°49' W 122°19'0 0.0
2018-Aug-13 05:30N 37°49' W 122°19'0 0.0
2018-Aug-13 05:00N 37°49' W 122°19'0 0.0
2018-Aug-13 04:30N 37°49' W 122°19'0 0.0
2018-Aug-13 04:00N 37°49' W 122°19'0 0.0
2018-Aug-13 03:30N 37°49' W 122°19'0 0.0
2018-Aug-13 03:00N 37°49' W 122°19'0 0.0
2018-Aug-13 02:30N 37°49' W 122°19'0 0.0
2018-Aug-13 02:00N 37°49' W 122°19'0 0.2
2018-Aug-13 01:30N 37°49' W 122°19'1 2.9
2018-Aug-13 01:00N 37°48' W 122°19'0 0.5
2018-Aug-13 00:29N 37°48' W 122°20'2 4.4
2018-Aug-13 00:00N 37°48' W 122°22'1 2.9
2018-Aug-12 23:30N 37°48' W 122°21'0 0.6
2018-Aug-12 23:00N 37°49' W 122°20'0 0.1
2018-Aug-12 22:30N 37°49' W 122°20'3 5.6
2018-Aug-12 22:00N 37°46' W 122°20'6 9.4
2018-Aug-12 21:23N 37°40' W 122°19'7 8.9
2018-Aug-12 20:38N 37°35' W 122°14'2 8.9
2018-Aug-12 20:25N 37°34' W 122°12'3 6.7
2018-Aug-12 20:00N 37°31' W 122°13'0 0.0
2018-Aug-12 19:18N 37°31' W 122°13'3 4.6
2018-Aug-12 18:39N 37°34' W 122°13'2 9.5
2018-Aug-12 18:26N 37°35' W 122°15'410.1
2018-Aug-12 18:00N 37°38' W 122°18'510.9
2018-Aug-12 17:30N 37°43' W 122°20'510.8
2018-Aug-12 17:01N 37°49' W 122°20'1 1.8
2018-Aug-12 16:30N 37°49' W 122°19'0 0.0
2018-Aug-12 15:58N 37°49' W 122°19'0 0.0
2018-Aug-12 15:30N 37°49' W 122°19'0 0.0
2018-Aug-12 14:59N 37°49' W 122°19'0 0.0
2018-Aug-12 14:30N 37°49' W 122°19'0 0.0
2018-Aug-12 14:00N 37°49' W 122°19'0 0.0
2018-Aug-12 13:30N 37°49' W 122°19'0 0.0
2018-Aug-12 13:00N 37°49' W 122°19'0 0.0
2018-Aug-12 12:30N 37°49' W 122°19'0 0.0
2018-Aug-12 11:59N 37°49' W 122°19'0 0.0
2018-Aug-12 11:30N 37°49' W 122°19'0 0.0
2018-Aug-12 11:00N 37°49' W 122°19'0 0.0
2018-Aug-12 10:29N 37°49' W 122°19'0 0.0
2018-Aug-12 10:00N 37°49' W 122°19'0 0.0
2018-Aug-12 09:30N 37°49' W 122°19'0 0.0
2018-Aug-12 09:00N 37°49' W 122°19'0 0.0
2018-Aug-12 08:31N 37°49' W 122°19'0 0.0
2018-Aug-12 08:00N 37°49' W 122°19'0 0.0
2018-Aug-12 07:30N 37°49' W 122°19'0 0.0
2018-Aug-12 07:00N 37°49' W 122°19'0 0.0
2018-Aug-12 06:30N 37°49' W 122°19'0 0.0
2018-Aug-12 06:00N 37°49' W 122°19'0 0.0
2018-Aug-12 05:30N 37°49' W 122°19'0 0.0
2018-Aug-12 05:00N 37°49' W 122°19'0 0.0
2018-Aug-12 04:30N 37°49' W 122°19'0 0.0
2018-Aug-12 04:00N 37°49' W 122°19'0 0.0
2018-Aug-12 03:30N 37°49' W 122°19'0 0.0
2018-Aug-12 03:00N 37°49' W 122°19'0 0.0
2018-Aug-12 02:30N 37°49' W 122°19'0 0.0
2018-Aug-12 02:00N 37°49' W 122°19'0 0.0
2018-Aug-12 01:29N 37°49' W 122°19'0 0.0
2018-Aug-12 01:00N 37°49' W 122°19'0 0.0
2018-Aug-12 00:30N 37°49' W 122°19'0 0.0
2018-Aug-12 00:00N 37°49' W 122°19'0 0.0
2018-Aug-11 23:30N 37°49' W 122°19'0 0.0
2018-Aug-11 23:00N 37°49' W 122°19'0 0.0
2018-Aug-11 22:30N 37°49' W 122°19'0 0.0
2018-Aug-11 22:00N 37°49' W 122°19'0 0.0
2018-Aug-11 21:31N 37°49' W 122°19'0 0.0
2018-Aug-11 21:00N 37°49' W 122°19'0 0.0
2018-Aug-11 20:30N 37°49' W 122°19'0 0.0
2018-Aug-11 20:01N 37°49' W 122°19'0 0.0
2018-Aug-11 19:30N 37°49' W 122°19'0 0.0
2018-Aug-11 19:00N 37°49' W 122°19'0 0.0
2018-Aug-11 18:30N 37°49' W 122°19'0 0.0
2018-Aug-11 18:00N 37°49' W 122°19'0 0.0
2018-Aug-11 17:30N 37°49' W 122°19'0 0.0
2018-Aug-11 17:00N 37°49' W 122°19'0 0.0
2018-Aug-11 16:31N 37°49' W 122°19'0 0.0
2018-Aug-11 15:58N 37°49' W 122°19'0 0.0
2018-Aug-11 15:30N 37°49' W 122°19'0 0.0
2018-Aug-11 15:00N 37°49' W 122°19'0 0.0
2018-Aug-11 14:30N 37°49' W 122°19'2 3.7
2018-Aug-11 14:00N 37°48' W 122°18'0 0.3
2018-Aug-11 13:30N 37°48' W 122°18'2 4.3
2018-Aug-11 13:00N 37°48' W 122°21'1 1.5
2018-Aug-11 12:30N 37°48' W 122°22'0 0.0
2018-Aug-11 12:00N 37°48' W 122°22'0 0.0
2018-Aug-11 11:30N 37°48' W 122°22'1 2.6
2018-Aug-11 11:00N 37°48' W 122°20'0 0.5
2018-Aug-11 10:30N 37°48' W 122°20'2 3.5
2018-Aug-11 10:00N 37°49' W 122°19'0 0.0
2018-Aug-11 09:30N 37°49' W 122°19'0 0.0
2018-Aug-11 09:00N 37°49' W 122°19'0 0.0
2018-Aug-11 08:30N 37°49' W 122°19'0 0.0
2018-Aug-11 08:00N 37°49' W 122°19'0 0.0
2018-Aug-11 07:30N 37°49' W 122°19'0 0.0
2018-Aug-11 07:00N 37°49' W 122°19'0 0.0
2018-Aug-11 06:30N 37°49' W 122°19'0 0.0
2018-Aug-11 06:00N 37°49' W 122°19'0 0.0
2018-Aug-11 05:30N 37°49' W 122°19'0 0.0
2018-Aug-11 05:00N 37°49' W 122°19'0 0.0
2018-Aug-11 04:30N 37°49' W 122°19'0 0.0
2018-Aug-11 04:00N 37°49' W 122°19'0 0.0
2018-Aug-11 03:30N 37°49' W 122°19'0 0.0
2018-Aug-11 03:00N 37°49' W 122°19'0 0.0
2018-Aug-11 02:30N 37°49' W 122°19'0 0.0
2018-Aug-11 02:00N 37°49' W 122°19'0 0.0
2018-Aug-11 01:30N 37°49' W 122°19'2 3.3
2018-Aug-11 01:00N 37°48' W 122°19'0 0.4
2018-Aug-11 00:30N 37°48' W 122°18'0 0.0
2018-Aug-11 00:00N 37°48' W 122°18'0 0.2
2018-Aug-10 23:30N 37°48' W 122°19'0 0.0
2018-Aug-10 23:00N 37°48' W 122°19'0 0.0
2018-Aug-10 22:30N 37°48' W 122°19'0 0.0
2018-Aug-10 22:00N 37°48' W 122°19'0 0.0
2018-Aug-10 21:30N 37°48' W 122°19'0 0.0
2018-Aug-10 21:00N 37°48' W 122°19'0 0.2
2018-Aug-10 20:30N 37°48' W 122°19'1 1.1
2018-Aug-10 20:00N 37°48' W 122°18'0 0.0
2018-Aug-10 19:30N 37°48' W 122°18'1 3.0
2018-Aug-10 19:00N 37°48' W 122°20'2 3.3
2018-Aug-10 18:30N 37°49' W 122°19'0 0.0
2018-Aug-10 18:00N 37°49' W 122°19'0 0.0
2018-Aug-10 17:30N 37°49' W 122°19'0 0.0
2018-Aug-10 17:00N 37°49' W 122°19'0 0.0
2018-Aug-10 16:30N 37°49' W 122°19'0 0.0
2018-Aug-10 16:00N 37°49' W 122°19'0 0.0
2018-Aug-10 15:31N 37°49' W 122°19'2 3.2
2018-Aug-10 15:00N 37°48' W 122°19'0 0.0
2018-Aug-10 14:30N 37°48' W 122°19'1 2.9
2018-Aug-10 14:00N 37°48' W 122°21'1 2.0
2018-Aug-10 13:30N 37°49' W 122°20'2 3.6
2018-Aug-10 13:00N 37°48' W 122°22'1 1.3
2018-Aug-10 12:30N 37°48' W 122°21'0 0.6
2018-Aug-10 12:00N 37°48' W 122°21'2 4.5
2018-Aug-10 11:30N 37°48' W 122°18'0 0.6
2018-Aug-10 11:01N 37°48' W 122°18'1 1.7
2018-Aug-10 10:30N 37°48' W 122°19'0 0.1
2018-Aug-10 10:00N 37°48' W 122°19'0 0.3
2018-Aug-10 09:30N 37°48' W 122°20'2 2.9
2018-Aug-10 08:57N 37°49' W 122°19'2 4.1
2018-Aug-10 08:30N 37°49' W 122°21'5 9.0
2018-Aug-10 08:00N 37°52' W 122°24'610.8
2018-Aug-10 07:29N 37°58' W 122°26'5 9.7
2018-Aug-10 06:59N 38°02' W 122°22'4 9.2
2018-Aug-10 06:30N 38°03' W 122°17'4 7.8
2018-Aug-10 06:00N 38°03' W 122°12'3 3.1
2018-Aug-10 04:57N 38°02' W 122°08'2 4.4
2018-Aug-10 04:28N 38°02' W 122°10'0 0.0
2018-Aug-10 04:00N 38°02' W 122°10'2 0.6
2018-Aug-10 00:32N 38°02' W 122°08'0 1.9
2018-Aug-10 00:29N 38°02' W 122°08'  
Track history (hours):
 
Tides and Currents Weather Stations Pressure Air Temp Water Temp Dewpoint Dewpoint Depression Visibility Wind Speed Wind Dir Waves Ship Positions

Sandra Hugh

Owner: AMNAV Maritime Corporation, Oakland, CA. More information available from US FCC via Universal Licensing System and Coast Guard Vessel Documentation Center.

Last reported at 2018-Aug-19 15:00 UTC. Time now 2018-Aug-19 15:20 UTC.
Position N 37°48' W 122°18'.

Length 24 m; draft 4.9 m.

Type: Tug. MMSI: 367305920.

Date/timePositionNaut miles runAvg speedWind from/ knotsBaromVisibWave heightAir tempDewpointWater temp
2018-Aug-19 15:00N 37°48' W 122°18'1 1.2
2018-Aug-19 14:30N 37°48' W 122°18'1 1.7
2018-Aug-19 14:00N 37°48' W 122°19'2 5.0
2018-Aug-19 13:30N 37°48' W 122°22'1 1.8
2018-Aug-19 13:00N 37°48' W 122°21'0 0.0
2018-Aug-19 12:30N 37°48' W 122°21'0 0.0
2018-Aug-19 12:00N 37°48' W 122°21'1 1.9
2018-Aug-19 11:30N 37°49' W 122°20'0 0.6
2018-Aug-19 11:00N 37°49' W 122°20'1 1.1
2018-Aug-19 10:30N 37°49' W 122°19'1 1.1
2018-Aug-19 10:00N 37°49' W 122°19'0 0.0
2018-Aug-19 09:30N 37°49' W 122°19'0 0.0
2018-Aug-19 09:00N 37°49' W 122°19'0 0.0
2018-Aug-19 08:28N 37°49' W 122°19'0 0.0
2018-Aug-19 08:00N 37°49' W 122°19'0 0.0
2018-Aug-19 07:30N 37°49' W 122°19'0 0.0
2018-Aug-19 07:00N 37°49' W 122°19'0 0.0
2018-Aug-19 06:30N 37°49' W 122°19'0 0.0
2018-Aug-19 06:00N 37°49' W 122°19'0 0.0
2018-Aug-19 05:30N 37°49' W 122°19'0 0.0
2018-Aug-19 05:00N 37°49' W 122°19'0 0.0
2018-Aug-19 04:30N 37°49' W 122°19'0 0.0
2018-Aug-19 04:00N 37°49' W 122°19'0 0.0
2018-Aug-19 03:27N 37°49' W 122°19'0 0.0
2018-Aug-19 03:00N 37°49' W 122°19'0 0.0
2018-Aug-19 02:30N 37°49' W 122°19'0 0.0
2018-Aug-19 02:00N 37°49' W 122°19'0 0.0
2018-Aug-19 01:30N 37°49' W 122°19'0 0.0
2018-Aug-19 01:01N 37°49' W 122°19'0 0.0
2018-Aug-19 00:30N 37°49' W 122°19'2 3.2
2018-Aug-19 00:00N 37°48' W 122°19'0 0.6
2018-Aug-18 23:30N 37°48' W 122°20'2 3.1
2018-Aug-18 23:00N 37°48' W 122°21'2 4.9
2018-Aug-18 22:30N 37°49' W 122°19'0 0.0
2018-Aug-18 22:00N 37°49' W 122°19'0 0.0
2018-Aug-18 21:30N 37°49' W 122°19'0 0.0
2018-Aug-18 21:00N 37°49' W 122°19'0 0.0
2018-Aug-18 20:31N 37°49' W 122°19'0 0.0
2018-Aug-18 20:00N 37°49' W 122°19'0 0.0
2018-Aug-18 19:30N 37°49' W 122°19'2 3.2
2018-Aug-18 19:00N 37°49' W 122°20'510.5
2018-Aug-18 18:30N 37°49' W 122°27'3 6.8
2018-Aug-18 18:00N 37°49' W 122°31'2 3.8
2018-Aug-18 17:30N 37°49' W 122°29'4 8.7
2018-Aug-18 17:01N 37°52' W 122°25'510.7
2018-Aug-18 16:30N 37°58' W 122°27'510.3
2018-Aug-18 16:00N 38°02' W 122°23'5 9.5
2018-Aug-18 15:31N 38°04' W 122°17'4 8.0
2018-Aug-18 14:58N 38°03' W 122°12'3 7.0
2018-Aug-18 14:30N 38°02' W 122°08'2 3.0
2018-Aug-18 13:46N 38°03' W 122°05'2 8.6
2018-Aug-18 13:30N 38°02' W 122°08'0 0.2
2018-Aug-18 13:01N 38°02' W 122°08'0 0.0
2018-Aug-18 12:31N 38°02' W 122°08'0 0.0
2018-Aug-18 12:00N 38°02' W 122°08'0 0.0
2018-Aug-18 11:30N 38°02' W 122°08'0 0.0
2018-Aug-18 11:00N 38°02' W 122°08'0 0.0
2018-Aug-18 10:30N 38°02' W 122°08'0 0.0
2018-Aug-18 10:00N 38°02' W 122°08'0 0.0
2018-Aug-18 09:30N 38°02' W 122°08'0 0.0
2018-Aug-18 09:00N 38°02' W 122°08'0 0.0
2018-Aug-18 08:30N 38°02' W 122°08'0 0.0
2018-Aug-18 08:00N 38°02' W 122°08'0 0.0
2018-Aug-18 07:30N 38°02' W 122°08'0 0.0
2018-Aug-18 06:59N 38°02' W 122°08'0 0.0
2018-Aug-18 06:30N 38°02' W 122°08'0 0.0
2018-Aug-18 06:00N 38°02' W 122°08'0 0.0
2018-Aug-18 05:30N 38°02' W 122°08'0 0.0
2018-Aug-18 05:00N 38°02' W 122°08'0 0.0
2018-Aug-18 04:31N 38°02' W 122°08'0 0.4
2018-Aug-18 03:27N 38°02' W 122°08'1 0.5
2018-Aug-18 00:58N 38°02' W 122°09'1 2.0
2018-Aug-18 00:28N 38°02' W 122°08'1 2.1
2018-Aug-18 00:01N 38°02' W 122°09'611.6
2018-Aug-17 23:30N 38°04' W 122°16'611.7
2018-Aug-17 23:00N 38°01' W 122°23'611.5
2018-Aug-17 22:30N 37°56' W 122°25'3 5.6
2018-Aug-17 22:01N 37°55' W 122°22'0 0.1
2018-Aug-17 21:31N 37°55' W 122°22'1 1.7
2018-Aug-17 21:00N 37°54' W 122°23'2 4.3
2018-Aug-17 20:30N 37°54' W 122°25'2 3.5
2018-Aug-17 20:00N 37°53' W 122°25'510.1
2018-Aug-17 19:30N 37°49' W 122°21'2 3.8
2018-Aug-17 19:00N 37°49' W 122°19'0 0.0
2018-Aug-17 18:30N 37°49' W 122°19'0 0.0
2018-Aug-17 18:00N 37°49' W 122°19'0 0.0
2018-Aug-17 17:30N 37°49' W 122°19'0 0.0
2018-Aug-17 17:00N 37°49' W 122°19'0 0.0
2018-Aug-17 16:30N 37°49' W 122°19'0 0.0
2018-Aug-17 16:00N 37°49' W 122°19'0 0.0
2018-Aug-17 15:30N 37°49' W 122°19'0 0.0
2018-Aug-17 14:58N 37°49' W 122°19'2 1.6
2018-Aug-17 14:00N 37°48' W 122°19'0 0.7
2018-Aug-17 13:30N 37°48' W 122°20'1 2.9
2018-Aug-17 13:00N 37°48' W 122°21'1 1.4
2018-Aug-17 12:30N 37°48' W 122°21'0 0.0
2018-Aug-17 12:00N 37°48' W 122°21'0 0.0
2018-Aug-17 11:30N 37°48' W 122°21'0 0.0
2018-Aug-17 11:00N 37°48' W 122°21'0 0.0
2018-Aug-17 10:30N 37°48' W 122°21'0 0.0
2018-Aug-17 10:00N 37°48' W 122°21'0 0.0
2018-Aug-17 09:30N 37°48' W 122°21'0 0.0
2018-Aug-17 09:00N 37°48' W 122°21'0 0.0
2018-Aug-17 08:30N 37°48' W 122°21'0 0.0
2018-Aug-17 08:00N 37°48' W 122°21'2 3.0
2018-Aug-17 07:30N 37°48' W 122°19'1 1.1
2018-Aug-17 07:01N 37°48' W 122°18'0 0.2
2018-Aug-17 06:30N 37°48' W 122°18'2 4.0
2018-Aug-17 06:00N 37°48' W 122°20'2 3.7
2018-Aug-17 05:30N 37°49' W 122°19'0 0.0
2018-Aug-17 05:00N 37°49' W 122°19'0 0.0
2018-Aug-17 04:30N 37°49' W 122°19'0 0.0
2018-Aug-17 04:00N 37°49' W 122°19'0 0.0
2018-Aug-17 03:30N 37°49' W 122°19'0 0.0
2018-Aug-17 03:00N 37°49' W 122°19'0 0.0
2018-Aug-17 02:30N 37°49' W 122°19'0 0.0
2018-Aug-17 02:00N 37°49' W 122°19'2 3.2
2018-Aug-17 01:30N 37°48' W 122°20'1 1.7
2018-Aug-17 01:00N 37°48' W 122°19'0 0.0
2018-Aug-17 00:30N 37°48' W 122°19'0 0.0
2018-Aug-17 00:00N 37°48' W 122°19'0 0.0
2018-Aug-16 23:30N 37°48' W 122°19'0 0.0
2018-Aug-16 23:01N 37°48' W 122°19'1 2.0
2018-Aug-16 22:30N 37°47' W 122°17'0 0.0
2018-Aug-16 22:00N 37°47' W 122°17'0 0.1
2018-Aug-16 21:30N 37°47' W 122°17'1 2.0
2018-Aug-16 21:00N 37°48' W 122°19'3 5.6
2018-Aug-16 20:30N 37°49' W 122°21'5 9.4
2018-Aug-16 20:00N 37°53' W 122°25'2 4.9
2018-Aug-16 19:31N 37°54' W 122°22'0 0.1
2018-Aug-16 19:00N 37°54' W 122°22'1 1.6
2018-Aug-16 18:30N 37°54' W 122°23'3 5.7
2018-Aug-16 18:00N 37°56' W 122°26'2 4.4
2018-Aug-16 17:29N 37°58' W 122°26'2 4.0
2018-Aug-16 17:00N 37°57' W 122°26'1 1.2
2018-Aug-16 16:30N 37°56' W 122°26'3 5.3
2018-Aug-16 16:00N 37°53' W 122°25'5 9.7
2018-Aug-16 15:30N 37°49' W 122°22'2 4.4
2018-Aug-16 15:00N 37°49' W 122°19'0 0.0
2018-Aug-16 14:30N 37°49' W 122°19'0 0.0
2018-Aug-16 14:00N 37°49' W 122°19'0 0.0
2018-Aug-16 13:30N 37°49' W 122°19'1 2.1
2018-Aug-16 13:00N 37°49' W 122°20'0 0.6
2018-Aug-16 12:30N 37°49' W 122°20'1 2.8
2018-Aug-16 12:00N 37°48' W 122°22'1 2.1
2018-Aug-16 11:30N 37°48' W 122°21'2 3.3
2018-Aug-16 11:00N 37°48' W 122°19'0 0.3
2018-Aug-16 10:30N 37°48' W 122°18'0 0.0
2018-Aug-16 10:00N 37°48' W 122°18'0 0.0
2018-Aug-16 09:30N 37°48' W 122°18'1 1.4
2018-Aug-16 09:00N 37°48' W 122°19'1 2.1
2018-Aug-16 08:30N 37°48' W 122°18'2 3.9
2018-Aug-16 08:00N 37°48' W 122°20'2 3.5
2018-Aug-16 07:30N 37°49' W 122°19'0 0.0
2018-Aug-16 07:00N 37°49' W 122°19'0 0.0
2018-Aug-16 06:30N 37°49' W 122°19'0 0.0
2018-Aug-16 06:00N 37°49' W 122°19'0 0.0
2018-Aug-16 05:30N 37°49' W 122°19'0 0.0
2018-Aug-16 05:00N 37°49' W 122°19'0 0.0
2018-Aug-16 04:30N 37°49' W 122°19'0 0.0
2018-Aug-16 04:00N 37°49' W 122°19'0 0.0
2018-Aug-16 03:30N 37°49' W 122°19'0 0.0
2018-Aug-16 03:00N 37°49' W 122°19'2 4.5
2018-Aug-16 02:30N 37°50' W 122°22'5 9.6
2018-Aug-16 02:00N 37°54' W 122°25'3 5.7
2018-Aug-16 01:30N 37°55' W 122°22'0 0.1
2018-Aug-16 01:00N 37°55' W 122°22'1 1.9
2018-Aug-16 00:30N 37°54' W 122°22'3 5.6
2018-Aug-16 00:00N 37°55' W 122°25'2 3.3
2018-Aug-15 23:30N 37°54' W 122°25'1 2.9
2018-Aug-15 23:00N 37°55' W 122°25'2 4.7
2018-Aug-15 22:30N 37°54' W 122°23'1 2.0
2018-Aug-15 22:00N 37°55' W 122°22'2 3.1
2018-Aug-15 21:30N 37°54' W 122°24'5 8.8
2018-Aug-15 20:59N 37°59' W 122°26'5 9.7
2018-Aug-15 20:30N 38°02' W 122°21'10 3.0
2018-Aug-15 17:05N 38°02' W 122°08'0 0.0
2018-Aug-15 16:55N 38°02' W 122°08'0 0.0
2018-Aug-15 16:02N 38°02' W 122°08'0 0.0
2018-Aug-15 15:58N 38°02' W 122°08'0 0.0
2018-Aug-15 12:50N 38°02' W 122°08'0 0.1
2018-Aug-15 10:46N 38°02' W 122°08'1 0.5
2018-Aug-15 08:18N 38°02' W 122°09'1 1.2
2018-Aug-15 07:33N 38°02' W 122°08'0 2.2
2018-Aug-15 07:27N 38°02' W 122°08'0 0.0
2018-Aug-14 19:47N 38°02' W 122°07'4 7.7
2018-Aug-14 19:19N 38°03' W 122°12'611.0
2018-Aug-14 18:47N 38°03' W 122°19'311.9
2018-Aug-14 18:30N 38°02' W 122°23'611.5
2018-Aug-14 17:59N 37°56' W 122°27'511.1
2018-Aug-14 17:30N 37°51' W 122°25'4 7.4
2018-Aug-14 17:00N 37°49' W 122°28'2 3.5
2018-Aug-14 16:30N 37°48' W 122°30'1 1.6
2018-Aug-14 16:01N 37°48' W 122°30'5 9.5
2018-Aug-14 15:30N 37°49' W 122°23'2 4.6
2018-Aug-14 15:00N 37°48' W 122°21'0 0.1
2018-Aug-14 14:30N 37°48' W 122°21'0 0.0
2018-Aug-14 14:01N 37°48' W 122°21'1 2.6
2018-Aug-14 13:31N 37°48' W 122°19'1 2.5
2018-Aug-14 13:00N 37°48' W 122°21'1 2.8
2018-Aug-14 12:30N 37°48' W 122°22'0 0.9
2018-Aug-14 12:00N 37°48' W 122°22'3 5.5
2018-Aug-14 11:30N 37°49' W 122°19'0 0.0
2018-Aug-14 11:00N 37°49' W 122°19'0 0.0
2018-Aug-14 10:28N 37°49' W 122°19'0 0.0
2018-Aug-14 10:00N 37°49' W 122°19'0 0.0
2018-Aug-14 09:30N 37°49' W 122°19'0 0.0
2018-Aug-14 09:00N 37°49' W 122°19'0 0.0
2018-Aug-14 08:30N 37°49' W 122°19'0 0.0
2018-Aug-14 08:00N 37°49' W 122°19'0 0.0
2018-Aug-14 07:30N 37°49' W 122°19'0 0.0
2018-Aug-14 07:00N 37°49' W 122°19'0 0.0
2018-Aug-14 06:30N 37°49' W 122°19'0 0.0
2018-Aug-14 06:00N 37°49' W 122°19'0 0.0
2018-Aug-14 05:30N 37°49' W 122°19'0 0.0
2018-Aug-14 05:00N 37°49' W 122°19'0 0.0
2018-Aug-14 04:30N 37°49' W 122°19'0 0.0
2018-Aug-14 04:00N 37°49' W 122°19'0 0.0
2018-Aug-14 03:30N 37°49' W 122°19'2 3.4
2018-Aug-14 03:00N 37°48' W 122°21'0 0.1
2018-Aug-14 02:30N 37°48' W 122°20'1 1.4
2018-Aug-14 02:00N 37°49' W 122°20'1 2.0
2018-Aug-14 01:30N 37°49' W 122°19'0 0.0
2018-Aug-14 01:00N 37°49' W 122°19'0 0.0
2018-Aug-14 00:30N 37°49' W 122°19'2 3.2
2018-Aug-14 00:00N 37°48' W 122°20'2 3.5
2018-Aug-13 23:30N 37°48' W 122°17'1 2.0
2018-Aug-13 23:00N 37°48' W 122°19'0 0.1
2018-Aug-13 22:28N 37°48' W 122°19'1 2.1
2018-Aug-13 22:00N 37°48' W 122°17'0 0.0
2018-Aug-13 21:30N 37°48' W 122°17'0 0.2
2018-Aug-13 21:00N 37°48' W 122°18'1 2.3
2018-Aug-13 20:30N 37°48' W 122°19'2 3.1
2018-Aug-13 20:00N 37°49' W 122°19'0 0.0
2018-Aug-13 19:30N 37°49' W 122°19'0 0.0
2018-Aug-13 19:00N 37°49' W 122°19'0 0.0
2018-Aug-13 18:29N 37°49' W 122°19'0 0.0
2018-Aug-13 18:00N 37°49' W 122°19'0 0.0
2018-Aug-13 17:30N 37°49' W 122°19'0 0.0
2018-Aug-13 17:00N 37°49' W 122°19'2 4.3
2018-Aug-13 16:31N 37°48' W 122°21'0 0.5
2018-Aug-13 16:00N 37°48' W 122°21'2 4.0
2018-Aug-13 15:28N 37°48' W 122°18'1 1.6
2018-Aug-13 15:00N 37°48' W 122°19'2 4.4
2018-Aug-13 14:30N 37°48' W 122°21'2 4.9
2018-Aug-13 14:00N 37°49' W 122°19'0 0.0
2018-Aug-13 13:30N 37°49' W 122°19'0 0.0
2018-Aug-13 13:00N 37°49' W 122°19'0 0.0
2018-Aug-13 12:30N 37°49' W 122°19'0 0.0
2018-Aug-13 12:00N 37°49' W 122°19'0 0.0
2018-Aug-13 11:30N 37°49' W 122°19'0 0.0
2018-Aug-13 11:00N 37°49' W 122°19'0 0.0
2018-Aug-13 10:30N 37°49' W 122°19'0 0.0
2018-Aug-13 10:00N 37°49' W 122°19'0 0.0
2018-Aug-13 09:30N 37°49' W 122°19'0 0.0
2018-Aug-13 09:00N 37°49' W 122°19'0 0.0
2018-Aug-13 08:30N 37°49' W 122°19'0 0.0
2018-Aug-13 08:00N 37°49' W 122°19'0 0.0
2018-Aug-13 07:30N 37°49' W 122°19'0 0.0
2018-Aug-13 07:00N 37°49' W 122°19'0 0.0
2018-Aug-13 06:30N 37°49' W 122°19'0 0.0
2018-Aug-13 06:00N 37°49' W 122°19'0 0.0
2018-Aug-13 05:30N 37°49' W 122°19'0 0.0
2018-Aug-13 05:00N 37°49' W 122°19'0 0.0
2018-Aug-13 04:30N 37°49' W 122°19'0 0.0
2018-Aug-13 04:00N 37°49' W 122°19'0 0.0
2018-Aug-13 03:30N 37°49' W 122°19'0 0.0
2018-Aug-13 03:00N 37°49' W 122°19'0 0.0
2018-Aug-13 02:30N 37°49' W 122°19'0 0.0
2018-Aug-13 02:00N 37°49' W 122°19'0 0.2
2018-Aug-13 01:30N 37°49' W 122°19'1 2.9
2018-Aug-13 01:00N 37°48' W 122°19'0 0.5
2018-Aug-13 00:29N 37°48' W 122°20'2 4.4
2018-Aug-13 00:00N 37°48' W 122°22'1 2.9
2018-Aug-12 23:30N 37°48' W 122°21'0 0.6
2018-Aug-12 23:00N 37°49' W 122°20'0 0.1
2018-Aug-12 22:30N 37°49' W 122°20'3 5.6
2018-Aug-12 22:00N 37°46' W 122°20'6 9.4
2018-Aug-12 21:23N 37°40' W 122°19'7 8.9
2018-Aug-12 20:38N 37°35' W 122°14'2 8.9
2018-Aug-12 20:25N 37°34' W 122°12'3 6.7
2018-Aug-12 20:00N 37°31' W 122°13'0 0.0
2018-Aug-12 19:18N 37°31' W 122°13'3 4.6
2018-Aug-12 18:39N 37°34' W 122°13'2 9.5
2018-Aug-12 18:26N 37°35' W 122°15'410.1
2018-Aug-12 18:00N 37°38' W 122°18'510.9
2018-Aug-12 17:30N 37°43' W 122°20'510.8
2018-Aug-12 17:01N 37°49' W 122°20'1 1.8
2018-Aug-12 16:30N 37°49' W 122°19'0 0.0
2018-Aug-12 15:58N 37°49' W 122°19'0 0.0
2018-Aug-12 15:30N 37°49' W 122°19'0 0.0
2018-Aug-12 14:59N 37°49' W 122°19'0 0.0
2018-Aug-12 14:30N 37°49' W 122°19'0 0.0
2018-Aug-12 14:00N 37°49' W 122°19'0 0.0
2018-Aug-12 13:30N 37°49' W 122°19'0 0.0
2018-Aug-12 13:00N 37°49' W 122°19'0 0.0
2018-Aug-12 12:30N 37°49' W 122°19'0 0.0
2018-Aug-12 11:59N 37°49' W 122°19'0 0.0
2018-Aug-12 11:30N 37°49' W 122°19'0 0.0
2018-Aug-12 11:00N 37°49' W 122°19'0 0.0
2018-Aug-12 10:29N 37°49' W 122°19'0 0.0
2018-Aug-12 10:00N 37°49' W 122°19'0 0.0
2018-Aug-12 09:30N 37°49' W 122°19'0 0.0
2018-Aug-12 09:00N 37°49' W 122°19'0 0.0
2018-Aug-12 08:31N 37°49' W 122°19'0 0.0
2018-Aug-12 08:00N 37°49' W 122°19'0 0.0
2018-Aug-12 07:30N 37°49' W 122°19'0 0.0
2018-Aug-12 07:00N 37°49' W 122°19'0 0.0
2018-Aug-12 06:30N 37°49' W 122°19'0 0.0
2018-Aug-12 06:00N 37°49' W 122°19'0 0.0
2018-Aug-12 05:30N 37°49' W 122°19'0 0.0
2018-Aug-12 05:00N 37°49' W 122°19'0 0.0
2018-Aug-12 04:30N 37°49' W 122°19'0 0.0
2018-Aug-12 04:00N 37°49' W 122°19'0 0.0
2018-Aug-12 03:30N 37°49' W 122°19'0 0.0
2018-Aug-12 03:00N 37°49' W 122°19'0 0.0
2018-Aug-12 02:30N 37°49' W 122°19'0 0.0
2018-Aug-12 02:00N 37°49' W 122°19'0 0.0
2018-Aug-12 01:29N 37°49' W 122°19'0 0.0
2018-Aug-12 01:00N 37°49' W 122°19'0 0.0
2018-Aug-12 00:30N 37°49' W 122°19'0 0.0
2018-Aug-12 00:00N 37°49' W 122°19'0 0.0
2018-Aug-11 23:30N 37°49' W 122°19'0 0.0
2018-Aug-11 23:00N 37°49' W 122°19'0 0.0
2018-Aug-11 22:30N 37°49' W 122°19'0 0.0
2018-Aug-11 22:00N 37°49' W 122°19'0 0.0
2018-Aug-11 21:31N 37°49' W 122°19'0 0.0
2018-Aug-11 21:00N 37°49' W 122°19'0 0.0
2018-Aug-11 20:30N 37°49' W 122°19'0 0.0
2018-Aug-11 20:01N 37°49' W 122°19'0 0.0
2018-Aug-11 19:30N 37°49' W 122°19'0 0.0
2018-Aug-11 19:00N 37°49' W 122°19'0 0.0
2018-Aug-11 18:30N 37°49' W 122°19'0 0.0
2018-Aug-11 18:00N 37°49' W 122°19'0 0.0
2018-Aug-11 17:30N 37°49' W 122°19'0 0.0
2018-Aug-11 17:00N 37°49' W 122°19'0 0.0
2018-Aug-11 16:31N 37°49' W 122°19'0 0.0
2018-Aug-11 15:58N 37°49' W 122°19'0 0.0
2018-Aug-11 15:30N 37°49' W 122°19'0 0.0
2018-Aug-11 15:00N 37°49' W 122°19'0 0.0
2018-Aug-11 14:30N 37°49' W 122°19'2 3.7
2018-Aug-11 14:00N 37°48' W 122°18'0 0.3
2018-Aug-11 13:30N 37°48' W 122°18'2 4.3
2018-Aug-11 13:00N 37°48' W 122°21'1 1.5
2018-Aug-11 12:30N 37°48' W 122°22'0 0.0
2018-Aug-11 12:00N 37°48' W 122°22'0 0.0
2018-Aug-11 11:30N 37°48' W 122°22'1 2.6
2018-Aug-11 11:00N 37°48' W 122°20'0 0.5
2018-Aug-11 10:30N 37°48' W 122°20'2 3.5
2018-Aug-11 10:00N 37°49' W 122°19'0 0.0
2018-Aug-11 09:30N 37°49' W 122°19'0 0.0
2018-Aug-11 09:00N 37°49' W 122°19'0 0.0
2018-Aug-11 08:30N 37°49' W 122°19'0 0.0
2018-Aug-11 08:00N 37°49' W 122°19'0 0.0
2018-Aug-11 07:30N 37°49' W 122°19'0 0.0
2018-Aug-11 07:00N 37°49' W 122°19'0 0.0
2018-Aug-11 06:30N 37°49' W 122°19'0 0.0
2018-Aug-11 06:00N 37°49' W 122°19'0 0.0
2018-Aug-11 05:30N 37°49' W 122°19'0 0.0
2018-Aug-11 05:00N 37°49' W 122°19'0 0.0
2018-Aug-11 04:30N 37°49' W 122°19'0 0.0
2018-Aug-11 04:00N 37°49' W 122°19'0 0.0
2018-Aug-11 03:30N 37°49' W 122°19'0 0.0
2018-Aug-11 03:00N 37°49' W 122°19'0 0.0
2018-Aug-11 02:30N 37°49' W 122°19'0 0.0
2018-Aug-11 02:00N 37°49' W 122°19'0 0.0
2018-Aug-11 01:30N 37°49' W 122°19'2 3.3
2018-Aug-11 01:00N 37°48' W 122°19'0 0.4
2018-Aug-11 00:30N 37°48' W 122°18'0 0.0
2018-Aug-11 00:00N 37°48' W 122°18'0 0.2
2018-Aug-10 23:30N 37°48' W 122°19'0 0.0
2018-Aug-10 23:00N 37°48' W 122°19'0 0.0
2018-Aug-10 22:30N 37°48' W 122°19'0 0.0
2018-Aug-10 22:00N 37°48' W 122°19'0 0.0
2018-Aug-10 21:30N 37°48' W 122°19'0 0.0
2018-Aug-10 21:00N 37°48' W 122°19'0 0.2
2018-Aug-10 20:30N 37°48' W 122°19'1 1.1
2018-Aug-10 20:00N 37°48' W 122°18'0 0.0
2018-Aug-10 19:30N 37°48' W 122°18'1 3.0
2018-Aug-10 19:00N 37°48' W 122°20'2 3.3
2018-Aug-10 18:30N 37°49' W 122°19'0 0.0
2018-Aug-10 18:00N 37°49' W 122°19'0 0.0
2018-Aug-10 17:30N 37°49' W 122°19'0 0.0
2018-Aug-10 17:00N 37°49' W 122°19'0 0.0
2018-Aug-10 16:30N 37°49' W 122°19'0 0.0
2018-Aug-10 16:00N 37°49' W 122°19'0 0.0
2018-Aug-10 15:31N 37°49' W 122°19'2 3.2
2018-Aug-10 15:00N 37°48' W 122°19'0 0.0
2018-Aug-10 14:30N 37°48' W 122°19'1 2.9
2018-Aug-10 14:00N 37°48' W 122°21'1 2.0
2018-Aug-10 13:30N 37°49' W 122°20'2 3.6
2018-Aug-10 13:00N 37°48' W 122°22'1 1.3
2018-Aug-10 12:30N 37°48' W 122°21'0 0.6
2018-Aug-10 12:00N 37°48' W 122°21'2 4.5
2018-Aug-10 11:30N 37°48' W 122°18'0 0.6
2018-Aug-10 11:01N 37°48' W 122°18'1 1.7
2018-Aug-10 10:30N 37°48' W 122°19'0 0.1
2018-Aug-10 10:00N 37°48' W 122°19'0 0.3
2018-Aug-10 09:30N 37°48' W 122°20'2 2.9
2018-Aug-10 08:57N 37°49' W 122°19'2 4.1
2018-Aug-10 08:30N 37°49' W 122°21'5 9.0
2018-Aug-10 08:00N 37°52' W 122°24'610.8
2018-Aug-10 07:29N 37°58' W 122°26'5 9.7
2018-Aug-10 06:59N 38°02' W 122°22'4 9.2
2018-Aug-10 06:30N 38°03' W 122°17'4 7.8
2018-Aug-10 06:00N 38°03' W 122°12'3 3.1
2018-Aug-10 04:57N 38°02' W 122°08'2 4.4
2018-Aug-10 04:28N 38°02' W 122°10'0 0.0
2018-Aug-10 04:00N 38°02' W 122°10'2 0.6
2018-Aug-10 00:32N 38°02' W 122°08'0 1.9
2018-Aug-10 00:29N 38°02' W 122°08'  

Dump ship's entire track history